sensor_id;sensor_type;location;lat;lon;timestamp;P1;durP1;ratioP1;P2;durP2;ratioP2
11817;SDS011;5966;52.402;5.322;2023-12-04T00:00:12;12.80;;;8.53;;
11817;SDS011;5966;52.402;5.322;2023-12-04T00:02:43;13.77;;;9.30;;
11817;SDS011;5966;52.402;5.322;2023-12-04T00:05:11;12.93;;;8.57;;
11817;SDS011;5966;52.402;5.322;2023-12-04T00:07:39;13.23;;;8.87;;
11817;SDS011;5966;52.402;5.322;2023-12-04T00:10:07;12.70;;;8.57;;
11817;SDS011;5966;52.402;5.322;2023-12-04T00:12:36;14.10;;;8.87;;
11817;SDS011;5966;52.402;5.322;2023-12-04T00:15:05;13.87;;;9.63;;
11817;SDS011;5966;52.402;5.322;2023-12-04T00:17:33;14.80;;;9.17;;
11817;SDS011;5966;52.402;5.322;2023-12-04T00:20:08;13.83;;;9.57;;
11817;SDS011;5966;52.402;5.322;2023-12-04T00:22:37;13.50;;;8.97;;
11817;SDS011;5966;52.402;5.322;2023-12-04T00:25:06;13.80;;;9.00;;
11817;SDS011;5966;52.402;5.322;2023-12-04T00:27:35;12.03;;;8.30;;
11817;SDS011;5966;52.402;5.322;2023-12-04T00:30:03;12.33;;;8.73;;
11817;SDS011;5966;52.402;5.322;2023-12-04T00:32:32;12.43;;;8.97;;
11817;SDS011;5966;52.402;5.322;2023-12-04T00:35:10;13.50;;;9.03;;
11817;SDS011;5966;52.402;5.322;2023-12-04T00:37:38;13.87;;;10.07;;
11817;SDS011;5966;52.402;5.322;2023-12-04T00:40:07;13.30;;;9.13;;
11817;SDS011;5966;52.402;5.322;2023-12-04T00:42:36;13.27;;;9.20;;
11817;SDS011;5966;52.402;5.322;2023-12-04T00:45:04;13.03;;;9.63;;
11817;SDS011;5966;52.402;5.322;2023-12-04T00:47:33;12.63;;;8.87;;
11817;SDS011;5966;52.402;5.322;2023-12-04T00:50:01;14.00;;;9.37;;
11817;SDS011;5966;52.402;5.322;2023-12-04T00:52:32;15.30;;;9.63;;
11817;SDS011;5966;52.402;5.322;2023-12-04T00:55:00;13.47;;;9.07;;
11817;SDS011;5966;52.402;5.322;2023-12-04T00:57:28;14.17;;;9.40;;
11817;SDS011;5966;52.402;5.322;2023-12-04T00:59:56;12.97;;;9.30;;
11817;SDS011;5966;52.402;5.322;2023-12-04T01:02:24;14.13;;;9.43;;
11817;SDS011;5966;52.402;5.322;2023-12-04T01:04:52;15.23;;;9.50;;
11817;SDS011;5966;52.402;5.322;2023-12-04T01:07:21;15.63;;;10.07;;
11817;SDS011;5966;52.402;5.322;2023-12-04T01:09:50;14.87;;;9.30;;
11817;SDS011;5966;52.402;5.322;2023-12-04T01:12:18;14.93;;;9.23;;
11817;SDS011;5966;52.402;5.322;2023-12-04T01:14:47;14.53;;;9.43;;
11817;SDS011;5966;52.402;5.322;2023-12-04T01:17:15;15.40;;;9.37;;
11817;SDS011;5966;52.402;5.322;2023-12-04T01:19:43;14.40;;;9.77;;
11817;SDS011;5966;52.402;5.322;2023-12-04T01:22:11;15.70;;;10.30;;
11817;SDS011;5966;52.402;5.322;2023-12-04T01:24:40;14.40;;;9.13;;
11817;SDS011;5966;52.402;5.322;2023-12-04T01:27:10;14.13;;;9.23;;
11817;SDS011;5966;52.402;5.322;2023-12-04T01:29:38;16.83;;;10.30;;
11817;SDS011;5966;52.402;5.322;2023-12-04T01:32:06;15.20;;;10.00;;
11817;SDS011;5966;52.402;5.322;2023-12-04T01:34:34;14.27;;;10.07;;
11817;SDS011;5966;52.402;5.322;2023-12-04T01:37:03;13.83;;;9.37;;
11817;SDS011;5966;52.402;5.322;2023-12-04T01:39:31;16.20;;;10.20;;
11817;SDS011;5966;52.402;5.322;2023-12-04T01:41:59;14.43;;;10.17;;
11817;SDS011;5966;52.402;5.322;2023-12-04T01:44:29;15.17;;;10.23;;
11817;SDS011;5966;52.402;5.322;2023-12-04T01:46:57;16.07;;;10.00;;
11817;SDS011;5966;52.402;5.322;2023-12-04T01:49:25;16.07;;;11.03;;
11817;SDS011;5966;52.402;5.322;2023-12-04T01:51:54;16.30;;;10.33;;
11817;SDS011;5966;52.402;5.322;2023-12-04T01:54:23;19.17;;;10.77;;
11817;SDS011;5966;52.402;5.322;2023-12-04T01:56:52;13.97;;;9.77;;
11817;SDS011;5966;52.402;5.322;2023-12-04T01:59:20;18.87;;;11.50;;
11817;SDS011;5966;52.402;5.322;2023-12-04T02:01:50;15.90;;;9.70;;
11817;SDS011;5966;52.402;5.322;2023-12-04T02:04:19;14.67;;;9.87;;
11817;SDS011;5966;52.402;5.322;2023-12-04T02:06:48;17.63;;;10.80;;
11817;SDS011;5966;52.402;5.322;2023-12-04T02:09:16;16.53;;;9.80;;
11817;SDS011;5966;52.402;5.322;2023-12-04T02:11:45;16.70;;;10.83;;
11817;SDS011;5966;52.402;5.322;2023-12-04T02:14:13;17.37;;;11.07;;
11817;SDS011;5966;52.402;5.322;2023-12-04T02:16:41;16.00;;;10.43;;
11817;SDS011;5966;52.402;5.322;2023-12-04T02:19:12;15.63;;;10.00;;
11817;SDS011;5966;52.402;5.322;2023-12-04T02:21:40;15.10;;;10.53;;
11817;SDS011;5966;52.402;5.322;2023-12-04T02:24:10;16.93;;;10.73;;
11817;SDS011;5966;52.402;5.322;2023-12-04T02:26:39;16.37;;;11.07;;
11817;SDS011;5966;52.402;5.322;2023-12-04T02:29:15;16.67;;;10.67;;
11817;SDS011;5966;52.402;5.322;2023-12-04T02:31:50;18.17;;;10.57;;
11817;SDS011;5966;52.402;5.322;2023-12-04T02:34:20;15.93;;;10.63;;
11817;SDS011;5966;52.402;5.322;2023-12-04T02:36:50;16.83;;;10.67;;
11817;SDS011;5966;52.402;5.322;2023-12-04T02:39:22;17.57;;;10.87;;
11817;SDS011;5966;52.402;5.322;2023-12-04T02:41:50;17.03;;;11.43;;
11817;SDS011;5966;52.402;5.322;2023-12-04T02:44:18;15.30;;;10.67;;
11817;SDS011;5966;52.402;5.322;2023-12-04T02:46:47;18.50;;;12.00;;
11817;SDS011;5966;52.402;5.322;2023-12-04T02:49:15;16.37;;;10.80;;
11817;SDS011;5966;52.402;5.322;2023-12-04T02:51:43;16.17;;;11.17;;
11817;SDS011;5966;52.402;5.322;2023-12-04T02:54:12;17.33;;;11.33;;
11817;SDS011;5966;52.402;5.322;2023-12-04T02:56:41;18.00;;;11.60;;
11817;SDS011;5966;52.402;5.322;2023-12-04T02:59:09;15.93;;;10.77;;
11817;SDS011;5966;52.402;5.322;2023-12-04T03:01:37;15.90;;;11.23;;
11817;SDS011;5966;52.402;5.322;2023-12-04T03:04:06;18.33;;;11.77;;
11817;SDS011;5966;52.402;5.322;2023-12-04T03:06:34;17.00;;;11.37;;
11817;SDS011;5966;52.402;5.322;2023-12-04T03:09:03;18.17;;;11.20;;
11817;SDS011;5966;52.402;5.322;2023-12-04T03:11:31;15.40;;;11.00;;
11817;SDS011;5966;52.402;5.322;2023-12-04T03:14:01;16.47;;;10.63;;
11817;SDS011;5966;52.402;5.322;2023-12-04T03:16:29;16.57;;;10.40;;
11817;SDS011;5966;52.402;5.322;2023-12-04T03:18:58;16.10;;;10.87;;
11817;SDS011;5966;52.402;5.322;2023-12-04T03:21:31;16.93;;;11.43;;
11817;SDS011;5966;52.402;5.322;2023-12-04T03:24:04;15.70;;;10.67;;
11817;SDS011;5966;52.402;5.322;2023-12-04T03:26:36;16.97;;;10.43;;
11817;SDS011;5966;52.402;5.322;2023-12-04T03:29:09;16.70;;;10.47;;
11817;SDS011;5966;52.402;5.322;2023-12-04T03:31:38;16.00;;;10.13;;
11817;SDS011;5966;52.402;5.322;2023-12-04T03:34:06;15.20;;;10.03;;
11817;SDS011;5966;52.402;5.322;2023-12-04T03:36:36;16.60;;;10.27;;
11817;SDS011;5966;52.402;5.322;2023-12-04T03:52:35;16.33;;;9.80;;
11817;SDS011;5966;52.402;5.322;2023-12-04T03:55:04;16.30;;;10.17;;
11817;SDS011;5966;52.402;5.322;2023-12-04T03:58:08;15.83;;;10.13;;
11817;SDS011;5966;52.402;5.322;2023-12-04T04:01:29;14.27;;;9.87;;
11817;SDS011;5966;52.402;5.322;2023-12-04T04:07:11;14.37;;;10.03;;
11817;SDS011;5966;52.402;5.322;2023-12-04T04:10:01;14.97;;;10.13;;
11817;SDS011;5966;52.402;5.322;2023-12-04T04:20:05;16.63;;;9.60;;
11817;SDS011;5966;52.402;5.322;2023-12-04T05:06:42;12.87;;;7.80;;
11817;SDS011;5966;52.402;5.322;2023-12-04T05:09:12;12.13;;;8.50;;
11817;SDS011;5966;52.402;5.322;2023-12-04T05:11:40;11.67;;;8.20;;
11817;SDS011;5966;52.402;5.322;2023-12-04T05:14:10;13.17;;;9.10;;
11817;SDS011;5966;52.402;5.322;2023-12-04T05:16:40;11.40;;;8.37;;
11817;SDS011;5966;52.402;5.322;2023-12-04T05:19:08;12.10;;;8.13;;
11817;SDS011;5966;52.402;5.322;2023-12-04T05:21:36;13.07;;;9.23;;
11817;SDS011;5966;52.402;5.322;2023-12-04T05:24:07;13.33;;;9.23;;
11817;SDS011;5966;52.402;5.322;2023-12-04T05:26:35;15.73;;;9.10;;
11817;SDS011;5966;52.402;5.322;2023-12-04T05:29:03;15.40;;;8.70;;
11817;SDS011;5966;52.402;5.322;2023-12-04T05:31:36;11.40;;;8.33;;
11817;SDS011;5966;52.402;5.322;2023-12-04T05:34:05;11.17;;;8.47;;
11817;SDS011;5966;52.402;5.322;2023-12-04T05:36:33;13.40;;;7.97;;
11817;SDS011;5966;52.402;5.322;2023-12-04T05:39:01;12.97;;;8.37;;
11817;SDS011;5966;52.402;5.322;2023-12-04T05:41:34;11.50;;;8.20;;
11817;SDS011;5966;52.402;5.322;2023-12-04T05:44:05;12.83;;;8.20;;
11817;SDS011;5966;52.402;5.322;2023-12-04T05:46:34;13.23;;;8.47;;
11817;SDS011;5966;52.402;5.322;2023-12-04T05:49:06;12.60;;;8.40;;
11817;SDS011;5966;52.402;5.322;2023-12-04T05:58:18;13.43;;;8.60;;
11817;SDS011;5966;52.402;5.322;2023-12-04T06:07:52;13.53;;;9.00;;
11817;SDS011;5966;52.402;5.322;2023-12-04T06:10:20;11.77;;;8.20;;
11817;SDS011;5966;52.402;5.322;2023-12-04T06:20:40;10.63;;;7.33;;
11817;SDS011;5966;52.402;5.322;2023-12-04T06:39:09;9.67;;;6.77;;
11817;SDS011;5966;52.402;5.322;2023-12-04T06:41:39;11.93;;;7.57;;
11817;SDS011;5966;52.402;5.322;2023-12-04T07:10:14;9.50;;;6.60;;
11817;SDS011;5966;52.402;5.322;2023-12-04T07:12:45;9.73;;;7.10;;
11817;SDS011;5966;52.402;5.322;2023-12-04T07:15:13;9.53;;;7.30;;
11817;SDS011;5966;52.402;5.322;2023-12-04T07:17:45;11.57;;;6.87;;
11817;SDS011;5966;52.402;5.322;2023-12-04T07:20:16;9.23;;;7.17;;
11817;SDS011;5966;52.402;5.322;2023-12-04T07:22:47;8.57;;;6.80;;
11817;SDS011;5966;52.402;5.322;2023-12-04T07:25:17;12.03;;;7.63;;
11817;SDS011;5966;52.402;5.322;2023-12-04T07:27:48;10.70;;;7.27;;
11817;SDS011;5966;52.402;5.322;2023-12-04T07:30:17;11.17;;;7.33;;
11817;SDS011;5966;52.402;5.322;2023-12-04T07:32:48;9.17;;;6.73;;
11817;SDS011;5966;52.402;5.322;2023-12-04T07:35:18;11.27;;;7.47;;
11817;SDS011;5966;52.402;5.322;2023-12-04T07:45:06;10.00;;;6.80;;
11817;SDS011;5966;52.402;5.322;2023-12-04T08:03:07;8.90;;;7.03;;
11817;SDS011;5966;52.402;5.322;2023-12-04T08:10:21;8.60;;;6.23;;
11817;SDS011;5966;52.402;5.322;2023-12-04T08:13:55;13.43;;;6.53;;
11817;SDS011;5966;52.402;5.322;2023-12-04T08:16:56;7.83;;;6.27;;
11817;SDS011;5966;52.402;5.322;2023-12-04T08:27:48;9.33;;;6.17;;
11817;SDS011;5966;52.402;5.322;2023-12-04T08:49:11;7.93;;;5.93;;
11817;SDS011;5966;52.402;5.322;2023-12-04T09:00:29;7.23;;;5.90;;
11817;SDS011;5966;52.402;5.322;2023-12-04T10:21:33;6.17;;;4.83;;
11817;SDS011;5966;52.402;5.322;2023-12-04T10:24:02;6.47;;;5.10;;
11817;SDS011;5966;52.402;5.322;2023-12-04T10:26:32;8.97;;;5.20;;
11817;SDS011;5966;52.402;5.322;2023-12-04T10:29:01;6.30;;;4.83;;
11817;SDS011;5966;52.402;5.322;2023-12-04T10:31:32;5.97;;;4.67;;
11817;SDS011;5966;52.402;5.322;2023-12-04T10:34:01;8.03;;;4.97;;
11817;SDS011;5966;52.402;5.322;2023-12-04T10:36:35;6.63;;;4.83;;
11817;SDS011;5966;52.402;5.322;2023-12-04T11:04:19;5.87;;;4.70;;
11817;SDS011;5966;52.402;5.322;2023-12-04T11:06:51;7.70;;;4.43;;
11817;SDS011;5966;52.402;5.322;2023-12-04T11:09:28;7.70;;;4.60;;
11817;SDS011;5966;52.402;5.322;2023-12-04T11:12:02;5.03;;;4.40;;
11817;SDS011;5966;52.402;5.322;2023-12-04T11:14:44;6.10;;;4.67;;
11817;SDS011;5966;52.402;5.322;2023-12-04T11:17:16;4.90;;;4.17;;
11817;SDS011;5966;52.402;5.322;2023-12-04T11:19:48;8.37;;;4.73;;
11817;SDS011;5966;52.402;5.322;2023-12-04T11:22:30;6.13;;;4.23;;
11817;SDS011;5966;52.402;5.322;2023-12-04T11:25:06;6.33;;;4.60;;
11817;SDS011;5966;52.402;5.322;2023-12-04T11:27:47;7.67;;;5.03;;
11817;SDS011;5966;52.402;5.322;2023-12-04T11:30:54;5.90;;;4.50;;
11817;SDS011;5966;52.402;5.322;2023-12-04T11:36:24;7.00;;;4.70;;
11817;SDS011;5966;52.402;5.322;2023-12-04T11:38:59;6.00;;;4.50;;
11817;SDS011;5966;52.402;5.322;2023-12-04T11:41:38;7.47;;;5.07;;
11817;SDS011;5966;52.402;5.322;2023-12-04T11:44:23;8.27;;;5.07;;
11817;SDS011;5966;52.402;5.322;2023-12-04T11:47:05;7.30;;;4.87;;
11817;SDS011;5966;52.402;5.322;2023-12-04T11:49:59;5.53;;;4.83;;
11817;SDS011;5966;52.402;5.322;2023-12-04T11:52:53;5.57;;;4.63;;
11817;SDS011;5966;52.402;5.322;2023-12-04T11:55:39;6.63;;;5.40;;
11817;SDS011;5966;52.402;5.322;2023-12-04T11:58:30;7.90;;;5.43;;
11817;SDS011;5966;52.402;5.322;2023-12-04T12:01:05;7.63;;;5.13;;
11817;SDS011;5966;52.402;5.322;2023-12-04T12:04:00;6.80;;;4.83;;
11817;SDS011;5966;52.402;5.322;2023-12-04T12:06:31;7.20;;;5.60;;
11817;SDS011;5966;52.402;5.322;2023-12-04T12:09:00;6.93;;;5.23;;
11817;SDS011;5966;52.402;5.322;2023-12-04T12:11:28;6.90;;;4.80;;
11817;SDS011;5966;52.402;5.322;2023-12-04T12:13:57;5.87;;;4.97;;
11817;SDS011;5966;52.402;5.322;2023-12-04T12:16:35;7.27;;;5.37;;
11817;SDS011;5966;52.402;5.322;2023-12-04T12:19:04;8.20;;;5.63;;
11817;SDS011;5966;52.402;5.322;2023-12-04T12:21:35;7.60;;;5.53;;
11817;SDS011;5966;52.402;5.322;2023-12-04T12:24:05;6.73;;;5.40;;
11817;SDS011;5966;52.402;5.322;2023-12-04T12:26:34;8.30;;;5.40;;
11817;SDS011;5966;52.402;5.322;2023-12-04T12:29:05;6.93;;;5.20;;
11817;SDS011;5966;52.402;5.322;2023-12-04T12:31:34;7.27;;;5.73;;
11817;SDS011;5966;52.402;5.322;2023-12-04T12:34:02;7.70;;;5.43;;
11817;SDS011;5966;52.402;5.322;2023-12-04T12:36:34;10.10;;;5.97;;
11817;SDS011;5966;52.402;5.322;2023-12-04T12:39:03;9.80;;;5.50;;
11817;SDS011;5966;52.402;5.322;2023-12-04T12:41:35;7.77;;;6.10;;
11817;SDS011;5966;52.402;5.322;2023-12-04T12:44:06;8.00;;;5.93;;
11817;SDS011;5966;52.402;5.322;2023-12-04T12:46:39;7.63;;;5.63;;
11817;SDS011;5966;52.402;5.322;2023-12-04T12:49:23;7.27;;;5.60;;
11817;SDS011;5966;52.402;5.322;2023-12-04T12:52:08;6.77;;;5.60;;
11817;SDS011;5966;52.402;5.322;2023-12-04T12:54:40;7.53;;;6.30;;
11817;SDS011;5966;52.402;5.322;2023-12-04T12:57:13;7.77;;;5.70;;
11817;SDS011;5966;52.402;5.322;2023-12-04T12:59:43;7.43;;;5.70;;
11817;SDS011;5966;52.402;5.322;2023-12-04T13:02:14;10.27;;;6.20;;
11817;SDS011;5966;52.402;5.322;2023-12-04T13:04:49;8.03;;;6.30;;
11817;SDS011;5966;52.402;5.322;2023-12-04T13:07:32;7.87;;;5.80;;
11817;SDS011;5966;52.402;5.322;2023-12-04T13:10:01;9.93;;;5.67;;
11817;SDS011;5966;52.402;5.322;2023-12-04T13:12:31;7.97;;;6.13;;
11817;SDS011;5966;52.402;5.322;2023-12-04T13:15:00;8.17;;;5.93;;
11817;SDS011;5966;52.402;5.322;2023-12-04T13:17:29;9.27;;;6.00;;
11817;SDS011;5966;52.402;5.322;2023-12-04T13:19:58;7.63;;;5.90;;
11817;SDS011;5966;52.402;5.322;2023-12-04T13:22:27;7.83;;;6.00;;
11817;SDS011;5966;52.402;5.322;2023-12-04T13:24:56;7.20;;;6.13;;
11817;SDS011;5966;52.402;5.322;2023-12-04T13:27:25;8.17;;;6.37;;
11817;SDS011;5966;52.402;5.322;2023-12-04T13:29:54;7.93;;;5.53;;
11817;SDS011;5966;52.402;5.322;2023-12-04T13:32:30;9.67;;;5.60;;
11817;SDS011;5966;52.402;5.322;2023-12-04T13:35:00;7.07;;;5.50;;
11817;SDS011;5966;52.402;5.322;2023-12-04T13:37:31;7.37;;;5.93;;
11817;SDS011;5966;52.402;5.322;2023-12-04T13:40:02;7.47;;;5.87;;
11817;SDS011;5966;52.402;5.322;2023-12-04T13:42:33;7.87;;;6.00;;
11817;SDS011;5966;52.402;5.322;2023-12-04T13:45:15;8.67;;;5.87;;
11817;SDS011;5966;52.402;5.322;2023-12-04T13:47:43;6.47;;;5.30;;
11817;SDS011;5966;52.402;5.322;2023-12-04T13:50:11;7.40;;;6.07;;
11817;SDS011;5966;52.402;5.322;2023-12-04T13:52:40;6.77;;;5.70;;
11817;SDS011;5966;52.402;5.322;2023-12-04T13:55:10;9.13;;;6.47;;
11817;SDS011;5966;52.402;5.322;2023-12-04T13:57:46;6.27;;;5.53;;
11817;SDS011;5966;52.402;5.322;2023-12-04T14:00:37;7.73;;;5.53;;
11817;SDS011;5966;52.402;5.322;2023-12-04T14:03:05;7.13;;;5.60;;
11817;SDS011;5966;52.402;5.322;2023-12-04T14:05:34;9.33;;;6.17;;
11817;SDS011;5966;52.402;5.322;2023-12-04T14:08:02;8.03;;;5.73;;
11817;SDS011;5966;52.402;5.322;2023-12-04T14:10:34;7.00;;;5.00;;
11817;SDS011;5966;52.402;5.322;2023-12-04T14:13:02;10.10;;;6.40;;
11817;SDS011;5966;52.402;5.322;2023-12-04T14:15:30;6.87;;;5.43;;
11817;SDS011;5966;52.402;5.322;2023-12-04T14:17:59;8.03;;;5.50;;
11817;SDS011;5966;52.402;5.322;2023-12-04T14:20:28;7.37;;;5.57;;
11817;SDS011;5966;52.402;5.322;2023-12-04T14:22:56;6.87;;;5.80;;
11817;SDS011;5966;52.402;5.322;2023-12-04T14:25:25;6.60;;;5.03;;
11817;SDS011;5966;52.402;5.322;2023-12-04T14:27:55;6.33;;;5.23;;
11817;SDS011;5966;52.402;5.322;2023-12-04T14:30:23;7.13;;;5.00;;
11817;SDS011;5966;52.402;5.322;2023-12-04T14:32:53;7.33;;;5.07;;
11817;SDS011;5966;52.402;5.322;2023-12-04T14:35:22;7.87;;;5.30;;
11817;SDS011;5966;52.402;5.322;2023-12-04T14:37:50;8.00;;;5.50;;
11817;SDS011;5966;52.402;5.322;2023-12-04T14:40:18;7.03;;;5.27;;
11817;SDS011;5966;52.402;5.322;2023-12-04T14:42:47;10.00;;;5.73;;
11817;SDS011;5966;52.402;5.322;2023-12-04T14:45:17;6.90;;;5.53;;
11817;SDS011;5966;52.402;5.322;2023-12-04T14:47:45;7.47;;;5.60;;
11817;SDS011;5966;52.402;5.322;2023-12-04T14:50:14;7.23;;;5.30;;
11817;SDS011;5966;52.402;5.322;2023-12-04T14:52:43;6.43;;;5.37;;
11817;SDS011;5966;52.402;5.322;2023-12-04T14:55:16;8.17;;;4.97;;
11817;SDS011;5966;52.402;5.322;2023-12-04T14:58:22;6.80;;;5.47;;
11817;SDS011;5966;52.402;5.322;2023-12-04T15:01:23;6.67;;;5.07;;
11817;SDS011;5966;52.402;5.322;2023-12-04T15:04:35;7.10;;;5.07;;
11817;SDS011;5966;52.402;5.322;2023-12-04T15:07:36;7.53;;;5.57;;
11817;SDS011;5966;52.402;5.322;2023-12-04T15:10:21;7.37;;;5.23;;
11817;SDS011;5966;52.402;5.322;2023-12-04T15:13:18;6.43;;;5.20;;
11817;SDS011;5966;52.402;5.322;2023-12-04T15:16:11;6.10;;;5.23;;
11817;SDS011;5966;52.402;5.322;2023-12-04T15:18:53;6.87;;;5.47;;
11817;SDS011;5966;52.402;5.322;2023-12-04T15:21:49;7.37;;;5.30;;
11817;SDS011;5966;52.402;5.322;2023-12-04T15:24:19;8.13;;;5.27;;
11817;SDS011;5966;52.402;5.322;2023-12-04T15:26:47;7.83;;;5.50;;
11817;SDS011;5966;52.402;5.322;2023-12-04T15:29:23;7.33;;;5.73;;
11817;SDS011;5966;52.402;5.322;2023-12-04T15:31:57;7.80;;;5.37;;
11817;SDS011;5966;52.402;5.322;2023-12-04T15:34:27;7.87;;;5.50;;
11817;SDS011;5966;52.402;5.322;2023-12-04T15:36:57;7.60;;;6.07;;
11817;SDS011;5966;52.402;5.322;2023-12-04T15:39:39;7.80;;;5.27;;
11817;SDS011;5966;52.402;5.322;2023-12-04T15:42:07;6.63;;;5.00;;
11817;SDS011;5966;52.402;5.322;2023-12-04T15:44:35;7.80;;;5.67;;
11817;SDS011;5966;52.402;5.322;2023-12-04T15:47:02;7.63;;;5.63;;
11817;SDS011;5966;52.402;5.322;2023-12-04T15:49:32;7.40;;;5.33;;
11817;SDS011;5966;52.402;5.322;2023-12-04T15:51:59;6.60;;;5.87;;
11817;SDS011;5966;52.402;5.322;2023-12-04T15:54:27;6.93;;;5.37;;
11817;SDS011;5966;52.402;5.322;2023-12-04T15:56:59;7.17;;;5.20;;
11817;SDS011;5966;52.402;5.322;2023-12-04T15:59:31;9.27;;;5.80;;
11817;SDS011;5966;52.402;5.322;2023-12-04T16:01:58;7.70;;;5.33;;
11817;SDS011;5966;52.402;5.322;2023-12-04T16:04:26;7.43;;;5.10;;
11817;SDS011;5966;52.402;5.322;2023-12-04T16:06:55;7.90;;;5.87;;
11817;SDS011;5966;52.402;5.322;2023-12-04T16:09:24;8.67;;;5.70;;
11817;SDS011;5966;52.402;5.322;2023-12-04T16:11:52;8.43;;;5.33;;
11817;SDS011;5966;52.402;5.322;2023-12-04T16:14:20;8.30;;;6.07;;
11817;SDS011;5966;52.402;5.322;2023-12-04T16:16:54;6.93;;;5.97;;
11817;SDS011;5966;52.402;5.322;2023-12-04T16:19:26;7.60;;;5.87;;
11817;SDS011;5966;52.402;5.322;2023-12-04T16:21:57;8.03;;;5.70;;
11817;SDS011;5966;52.402;5.322;2023-12-04T16:24:28;7.53;;;6.17;;
11817;SDS011;5966;52.402;5.322;2023-12-04T16:26:56;9.17;;;6.10;;
11817;SDS011;5966;52.402;5.322;2023-12-04T16:29:24;8.80;;;6.27;;
11817;SDS011;5966;52.402;5.322;2023-12-04T16:31:57;7.87;;;5.57;;
11817;SDS011;5966;52.402;5.322;2023-12-04T16:34:25;10.03;;;5.80;;
11817;SDS011;5966;52.402;5.322;2023-12-04T16:36:59;7.73;;;6.07;;
11817;SDS011;5966;52.402;5.322;2023-12-04T16:39:27;7.77;;;6.13;;
11817;SDS011;5966;52.402;5.322;2023-12-04T16:41:56;8.40;;;5.50;;
11817;SDS011;5966;52.402;5.322;2023-12-04T16:44:24;10.07;;;5.60;;
11817;SDS011;5966;52.402;5.322;2023-12-04T16:46:53;7.40;;;5.83;;
11817;SDS011;5966;52.402;5.322;2023-12-04T16:49:23;7.07;;;5.30;;
11817;SDS011;5966;52.402;5.322;2023-12-04T16:51:52;7.03;;;5.33;;
11817;SDS011;5966;52.402;5.322;2023-12-04T16:54:29;7.03;;;5.77;;
11817;SDS011;5966;52.402;5.322;2023-12-04T16:56:57;6.80;;;5.33;;
11817;SDS011;5966;52.402;5.322;2023-12-04T16:59:25;7.37;;;5.63;;
11817;SDS011;5966;52.402;5.322;2023-12-04T17:01:57;8.97;;;6.20;;
11817;SDS011;5966;52.402;5.322;2023-12-04T17:04:29;9.50;;;5.93;;
11817;SDS011;5966;52.402;5.322;2023-12-04T17:07:15;7.23;;;5.70;;
11817;SDS011;5966;52.402;5.322;2023-12-04T17:10:02;7.83;;;5.87;;
11817;SDS011;5966;52.402;5.322;2023-12-04T17:12:32;6.87;;;5.60;;
11817;SDS011;5966;52.402;5.322;2023-12-04T17:15:02;8.83;;;6.10;;
11817;SDS011;5966;52.402;5.322;2023-12-04T17:17:31;9.43;;;6.40;;
11817;SDS011;5966;52.402;5.322;2023-12-04T17:19:59;9.93;;;6.23;;
11817;SDS011;5966;52.402;5.322;2023-12-04T17:22:28;8.83;;;6.67;;
11817;SDS011;5966;52.402;5.322;2023-12-04T17:25:12;7.57;;;5.97;;
11817;SDS011;5966;52.402;5.322;2023-12-04T17:27:41;9.20;;;5.83;;
11817;SDS011;5966;52.402;5.322;2023-12-04T17:30:10;7.40;;;6.23;;
11817;SDS011;5966;52.402;5.322;2023-12-04T17:32:38;7.27;;;6.20;;
11817;SDS011;5966;52.402;5.322;2023-12-04T17:35:07;7.73;;;6.50;;
11817;SDS011;5966;52.402;5.322;2023-12-04T17:37:37;7.73;;;6.30;;
11817;SDS011;5966;52.402;5.322;2023-12-04T17:40:08;9.27;;;6.67;;
11817;SDS011;5966;52.402;5.322;2023-12-04T17:42:40;9.93;;;6.60;;
11817;SDS011;5966;52.402;5.322;2023-12-04T17:45:14;9.07;;;6.93;;
11817;SDS011;5966;52.402;5.322;2023-12-04T17:50:29;8.17;;;6.87;;
11817;SDS011;5966;52.402;5.322;2023-12-04T17:52:57;9.97;;;7.13;;
11817;SDS011;5966;52.402;5.322;2023-12-04T17:55:28;10.37;;;7.03;;
11817;SDS011;5966;52.402;5.322;2023-12-04T17:58:17;10.33;;;6.90;;
11817;SDS011;5966;52.402;5.322;2023-12-04T18:00:45;9.40;;;7.40;;
11817;SDS011;5966;52.402;5.322;2023-12-04T18:03:15;10.87;;;8.23;;
11817;SDS011;5966;52.402;5.322;2023-12-04T18:05:52;7.53;;;6.77;;
11817;SDS011;5966;52.402;5.322;2023-12-04T18:08:23;9.27;;;7.00;;
11817;SDS011;5966;52.402;5.322;2023-12-04T18:11:00;9.23;;;7.37;;
11817;SDS011;5966;52.402;5.322;2023-12-04T18:13:34;11.33;;;8.13;;
11817;SDS011;5966;52.402;5.322;2023-12-04T18:19:07;8.83;;;7.37;;
11817;SDS011;5966;52.402;5.322;2023-12-04T18:21:36;11.53;;;7.60;;
11817;SDS011;5966;52.402;5.322;2023-12-04T18:24:05;10.37;;;7.63;;
11817;SDS011;5966;52.402;5.322;2023-12-04T18:26:42;11.13;;;7.83;;
11817;SDS011;5966;52.402;5.322;2023-12-04T18:29:45;9.67;;;7.87;;
11817;SDS011;5966;52.402;5.322;2023-12-04T18:32:16;10.53;;;7.73;;
11817;SDS011;5966;52.402;5.322;2023-12-04T18:34:44;10.33;;;8.00;;
11817;SDS011;5966;52.402;5.322;2023-12-04T18:37:15;9.60;;;8.40;;
11817;SDS011;5966;52.402;5.322;2023-12-04T18:39:49;10.53;;;8.30;;
11817;SDS011;5966;52.402;5.322;2023-12-04T18:42:32;11.37;;;8.83;;
11817;SDS011;5966;52.402;5.322;2023-12-04T18:45:06;9.03;;;7.40;;
11817;SDS011;5966;52.402;5.322;2023-12-04T18:47:52;9.27;;;8.17;;
11817;SDS011;5966;52.402;5.322;2023-12-04T18:50:45;10.87;;;8.50;;
11817;SDS011;5966;52.402;5.322;2023-12-04T18:53:17;11.70;;;8.63;;
11817;SDS011;5966;52.402;5.322;2023-12-04T18:55:46;12.27;;;9.00;;
11817;SDS011;5966;52.402;5.322;2023-12-04T18:58:29;11.73;;;9.83;;
11817;SDS011;5966;52.402;5.322;2023-12-04T19:01:05;12.40;;;9.53;;
11817;SDS011;5966;52.402;5.322;2023-12-04T19:03:34;11.13;;;8.90;;
11817;SDS011;5966;52.402;5.322;2023-12-04T19:06:22;9.80;;;8.80;;
11817;SDS011;5966;52.402;5.322;2023-12-04T19:08:50;10.03;;;8.63;;
11817;SDS011;5966;52.402;5.322;2023-12-04T19:11:33;10.80;;;8.73;;
11817;SDS011;5966;52.402;5.322;2023-12-04T19:14:07;10.93;;;8.57;;
11817;SDS011;5966;52.402;5.322;2023-12-04T19:16:36;11.30;;;8.47;;
11817;SDS011;5966;52.402;5.322;2023-12-04T19:19:04;11.27;;;9.17;;
11817;SDS011;5966;52.402;5.322;2023-12-04T19:21:41;9.50;;;8.33;;
11817;SDS011;5966;52.402;5.322;2023-12-04T19:24:17;11.70;;;9.07;;
11817;SDS011;5966;52.402;5.322;2023-12-04T19:34:45;10.40;;;9.07;;
11817;SDS011;5966;52.402;5.322;2023-12-04T19:37:24;9.47;;;8.33;;
11817;SDS011;5966;52.402;5.322;2023-12-04T19:39:53;9.27;;;8.27;;
11817;SDS011;5966;52.402;5.322;2023-12-04T19:42:24;10.27;;;8.73;;
11817;SDS011;5966;52.402;5.322;2023-12-04T19:44:56;9.07;;;7.53;;
11817;SDS011;5966;52.402;5.322;2023-12-04T19:47:27;9.33;;;7.70;;
11817;SDS011;5966;52.402;5.322;2023-12-04T19:49:55;10.33;;;7.70;;
11817;SDS011;5966;52.402;5.322;2023-12-04T19:52:24;8.27;;;7.10;;
11817;SDS011;5966;52.402;5.322;2023-12-04T19:55:01;7.63;;;6.73;;
11817;SDS011;5966;52.402;5.322;2023-12-04T19:57:30;8.33;;;7.07;;
11817;SDS011;5966;52.402;5.322;2023-12-04T19:59:59;8.93;;;7.17;;
11817;SDS011;5966;52.402;5.322;2023-12-04T20:02:31;8.07;;;7.17;;
11817;SDS011;5966;52.402;5.322;2023-12-04T20:05:02;7.97;;;6.90;;
11817;SDS011;5966;52.402;5.322;2023-12-04T20:07:31;8.57;;;7.20;;
11817;SDS011;5966;52.402;5.322;2023-12-04T20:10:01;8.40;;;7.33;;
11817;SDS011;5966;52.402;5.322;2023-12-04T20:12:30;8.47;;;6.83;;
11817;SDS011;5966;52.402;5.322;2023-12-04T20:14:59;7.77;;;6.90;;
11817;SDS011;5966;52.402;5.322;2023-12-04T20:17:28;7.13;;;6.43;;
11817;SDS011;5966;52.402;5.322;2023-12-04T20:19:58;7.73;;;6.80;;
11817;SDS011;5966;52.402;5.322;2023-12-04T20:22:27;7.30;;;6.60;;
11817;SDS011;5966;52.402;5.322;2023-12-04T20:24:55;9.43;;;7.47;;
11817;SDS011;5966;52.402;5.322;2023-12-04T20:27:23;7.83;;;7.03;;
11817;SDS011;5966;52.402;5.322;2023-12-04T20:29:51;7.57;;;6.80;;
11817;SDS011;5966;52.402;5.322;2023-12-04T20:32:20;8.53;;;6.77;;
11817;SDS011;5966;52.402;5.322;2023-12-04T20:34:50;7.37;;;6.67;;
11817;SDS011;5966;52.402;5.322;2023-12-04T20:37:19;7.80;;;7.00;;
11817;SDS011;5966;52.402;5.322;2023-12-04T20:39:47;8.57;;;7.57;;